aviador You're here:

HEMM Decoded Metar

MERSA-MATRUH in EGYPT
Report Time2017-11-20 22:00:00
UTC Time2017-11-20 22:54:58
Flight Rules vfr VFR
Wind240° at 11 kt
W.Decomp.*RWY 24: 11.0 kt HW 0.6 kt LCW
RWY 15: 0.6 kt HW 11.0 kt RCW
W.Rank240° ranks 11
Current wind is above 240° avg. (8.4)
Visibility9999 m
Phenomena:N/A
Clouds:N/A
Expected CloudBase > 2,400 ft AGL from Temp-Dew spread
CeilingNone
Temp16°C (ISA +1)
Dew Point10°C (68% RH)
AAT12.1°C
QNH1017 hPa
Density Alt269 ft
Elevation98 ft
Report Wrong Elevation
Raw Report
HEMM 202200Z 24011KT CAVOK 16/10 Q1017 NOSIG=

Extra information for HEMM:More info

Metar Taf Metar & Taf Last 4 Metars F.Rules Stats Wind Profile Meteogram Temp Stats Airport Information Weather charts Add Link Nearby VenuesMetar ALERT Operation Metar Decoded Social comments